createdAt,value
2022-08-11T00:02:00.568Z,25.98
2022-08-11T00:04:37.061Z,25.88
2022-08-11T00:07:07.027Z,25.91
2022-08-11T00:09:40.120Z,25.83
2022-08-11T00:12:18.248Z,25.88
2022-08-11T00:14:48.075Z,25.78
2022-08-11T00:17:17.450Z,25.84
2022-08-11T00:20:11.786Z,25.78
2022-08-11T00:22:39.100Z,25.84
2022-08-11T00:25:17.147Z,25.81
2022-08-11T00:27:45.774Z,25.75
2022-08-11T00:30:14.281Z,25.74
2022-08-11T00:32:44.346Z,25.71
2022-08-11T00:35:51.588Z,25.62
2022-08-11T00:38:07.013Z,25.45
2022-08-11T00:40:58.538Z,25.46
2022-08-11T00:43:48.725Z,25.35
2022-08-11T00:46:25.219Z,25.35
2022-08-11T00:49:12.067Z,25.19
2022-08-11T00:52:04.386Z,25.31
2022-08-11T00:55:07.982Z,25.26
2022-08-11T00:57:57.087Z,25.24
2022-08-11T01:00:27.235Z,25.24
2022-08-11T01:03:15.030Z,25.30
2022-08-11T01:06:08.412Z,25.28
2022-08-11T01:09:21.893Z,25.29
2022-08-11T01:12:05.210Z,25.25
2022-08-11T01:15:31.154Z,25.28
2022-08-11T01:18:17.383Z,25.43
2022-08-11T01:21:06.495Z,25.41
2022-08-11T01:24:02.655Z,25.44
2022-08-11T01:26:58.010Z,25.37
2022-08-11T01:29:29.244Z,25.35
2022-08-11T01:32:15.572Z,25.40
2022-08-11T01:35:20.323Z,25.33
2022-08-11T01:38:05.933Z,25.33
2022-08-11T01:41:03.806Z,25.31
2022-08-11T01:44:12.507Z,25.26
2022-08-11T01:46:57.636Z,25.23
2022-08-11T01:50:09.830Z,25.27
2022-08-11T01:52:51.109Z,25.36
2022-08-11T01:55:27.117Z,25.31
2022-08-11T01:58:06.920Z,25.32
2022-08-11T02:00:55.868Z,25.36
2022-08-11T02:03:54.354Z,25.34
2022-08-11T02:06:56.721Z,25.38
2022-08-11T02:10:36.632Z,25.40
2022-08-11T02:13:38.022Z,25.33
2022-08-11T02:16:22.087Z,25.27
2022-08-11T02:19:19.327Z,25.23
2022-08-11T02:22:35.206Z,25.21
2022-08-11T02:25:12.738Z,25.27
2022-08-11T02:27:54.107Z,25.37
2022-08-11T02:30:27.616Z,25.36
2022-08-11T02:33:24.503Z,25.38
2022-08-11T02:36:10.730Z,25.46
2022-08-11T02:38:49.614Z,25.45
2022-08-11T02:42:35.531Z,25.48
2022-08-11T02:45:12.751Z,25.45
2022-08-11T02:48:33.199Z,25.39
2022-08-11T02:51:06.393Z,25.43
2022-08-11T02:54:03.173Z,25.42
2022-08-11T02:56:52.306Z,25.43
2022-08-11T02:59:50.427Z,25.55
2022-08-11T03:02:32.603Z,25.50
2022-08-11T03:05:18.418Z,25.45
2022-08-11T03:08:16.423Z,25.44
2022-08-11T03:11:24.370Z,25.43
2022-08-11T03:14:28.441Z,25.45
2022-08-11T03:17:10.166Z,25.31
2022-08-11T03:19:53.991Z,25.24
2022-08-11T03:22:54.855Z,25.12
2022-08-11T03:25:51.917Z,25.23
2022-08-11T03:28:34.166Z,25.19
2022-08-11T03:31:16.205Z,25.13
2022-08-11T03:34:07.152Z,25.05
2022-08-11T03:37:17.101Z,25.06
2022-08-11T03:39:57.901Z,25.00
2022-08-11T03:42:48.768Z,25.01
2022-08-11T03:45:20.127Z,25.11
2022-08-11T03:48:25.134Z,25.08
2022-08-11T03:51:51.722Z,24.89
2022-08-11T03:54:43.557Z,24.88
2022-08-11T03:57:29.492Z,24.90
2022-08-11T04:00:14.879Z,25.13
2022-08-11T04:03:00.611Z,25.19
2022-08-11T04:06:15.217Z,25.14
2022-08-11T04:09:03.220Z,25.12
2022-08-11T04:11:42.894Z,25.15
2022-08-11T04:15:06.520Z,25.17
2022-08-11T04:17:38.476Z,25.18
2022-08-11T04:20:08.933Z,25.25
2022-08-11T04:22:49.354Z,25.26
2022-08-11T04:25:51.148Z,25.37
2022-08-11T04:28:47.930Z,25.41
2022-08-11T04:31:51.109Z,25.44
2022-08-11T04:34:20.925Z,25.44
2022-08-11T04:37:25.225Z,25.61
2022-08-11T04:40:27.055Z,25.60
2022-08-11T04:43:32.193Z,25.54
2022-08-11T04:46:27.749Z,25.60
2022-08-11T04:49:38.253Z,25.52
2022-08-11T04:52:42.546Z,25.55
2022-08-11T04:55:31.532Z,25.61
2022-08-11T04:58:20.593Z,25.65
2022-08-11T05:01:09.333Z,25.70
2022-08-11T05:03:47.004Z,25.77
2022-08-11T05:06:45.182Z,25.96
2022-08-11T05:09:24.220Z,26.00
2022-08-11T05:12:02.026Z,26.15
2022-08-11T05:15:07.216Z,26.27
2022-08-11T05:18:08.640Z,26.32
2022-08-11T05:21:05.458Z,26.35
2022-08-11T05:23:54.428Z,26.44
2022-08-11T05:26:46.942Z,26.44
2022-08-11T05:29:56.543Z,26.39
2022-08-11T05:32:44.869Z,26.39
2022-08-11T05:35:18.467Z,26.46
2022-08-11T05:38:20.826Z,26.61
2022-08-11T05:41:09.111Z,26.77
2022-08-11T05:44:19.788Z,26.89
2022-08-11T05:47:07.731Z,26.94
2022-08-11T05:49:55.453Z,27.06
2022-08-11T05:52:49.180Z,27.07
2022-08-11T05:55:52.379Z,27.15
2022-08-11T05:58:42.590Z,27.18
2022-08-11T06:01:14.349Z,27.22
2022-08-11T06:04:03.973Z,27.27
2022-08-11T06:06:32.411Z,27.27
2022-08-11T06:09:01.715Z,27.35
2022-08-11T06:11:43.010Z,27.38
2022-08-11T06:14:11.710Z,27.36
2022-08-11T06:16:41.701Z,27.46
2022-08-11T06:19:10.379Z,27.49
2022-08-11T06:21:38.410Z,27.60
2022-08-11T06:24:12.969Z,27.64
2022-08-11T06:27:09.205Z,27.71
2022-08-11T06:29:47.950Z,27.76
2022-08-11T06:32:16.656Z,27.74
2022-08-11T06:35:10.298Z,27.76
2022-08-11T06:37:55.543Z,27.86
2022-08-11T06:40:43.721Z,27.98
2022-08-11T06:43:27.256Z,28.10
2022-08-11T06:46:04.038Z,28.39
2022-08-11T06:48:39.322Z,28.61
2022-08-11T06:51:13.663Z,28.79
2022-08-11T06:54:04.233Z,28.96
2022-08-11T06:57:27.897Z,29.09
2022-08-11T07:00:04.747Z,29.32
2022-08-11T07:02:43.459Z,29.49
2022-08-11T07:05:25.402Z,29.63
2022-08-11T07:08:42.807Z,29.89
2022-08-11T07:11:46.046Z,29.88
2022-08-11T07:14:47.338Z,29.95
2022-08-11T07:17:17.923Z,29.97
2022-08-11T07:20:22.453Z,30.16
2022-08-11T07:23:14.659Z,30.42
2022-08-11T07:26:03.583Z,30.59
2022-08-11T07:28:52.188Z,30.59
2022-08-11T07:31:46.497Z,30.66
2022-08-11T07:34:20.739Z,30.71
2022-08-11T07:37:00.492Z,30.90
2022-08-11T07:39:32.950Z,31.01
2022-08-11T07:42:06.986Z,31.18
2022-08-11T07:44:55.243Z,31.39
2022-08-11T07:47:42.524Z,31.62
2022-08-11T07:50:29.637Z,31.72
2022-08-11T07:53:01.025Z,31.76
2022-08-11T07:55:49.587Z,31.93
2022-08-11T07:58:45.106Z,31.92
2022-08-11T08:01:39.922Z,31.96
2022-08-11T08:04:29.440Z,31.91
2022-08-11T08:07:17.092Z,31.93
2022-08-11T08:10:04.763Z,32.07
2022-08-11T08:12:51.362Z,32.28
2022-08-11T08:15:40.062Z,32.46
2022-08-11T08:18:25.546Z,32.58
2022-08-11T08:20:57.082Z,32.67
2022-08-11T08:23:34.156Z,32.92
2022-08-11T08:26:26.612Z,32.97
2022-08-11T08:29:16.102Z,33.05
2022-08-11T08:31:45.796Z,33.11
2022-08-11T08:34:15.723Z,33.16
2022-08-11T08:36:48.275Z,33.18
2022-08-11T08:39:19.201Z,33.36
2022-08-11T08:41:52.674Z,33.47
2022-08-11T08:44:40.984Z,33.64
2022-08-11T08:47:15.264Z,33.74
2022-08-11T08:50:07.737Z,33.93
2022-08-11T08:52:43.958Z,34.12
2022-08-11T08:55:18.754Z,34.23
2022-08-11T08:57:49.961Z,34.47
2022-08-11T09:00:23.054Z,34.50
2022-08-11T09:02:52.466Z,34.38
2022-08-11T09:05:21.288Z,34.42
2022-08-11T09:07:51.345Z,34.70
2022-08-11T09:10:20.693Z,34.67
2022-08-11T09:12:49.824Z,34.76
2022-08-11T09:15:19.934Z,34.83
2022-08-11T09:18:06.394Z,34.96
2022-08-11T09:20:36.611Z,35.18
2022-08-11T09:24:07.509Z,35.30
2022-08-11T09:26:34.232Z,35.36
2022-08-11T09:29:04.729Z,35.49
2022-08-11T09:31:39.698Z,35.66
2022-08-11T09:34:10.464Z,35.83
2022-08-11T09:37:00.214Z,35.98
2022-08-11T09:39:49.436Z,36.11
2022-08-11T09:42:23.398Z,36.15
2022-08-11T09:44:53.821Z,36.31
2022-08-11T09:47:28.242Z,36.28
2022-08-11T09:50:00.691Z,36.29
2022-08-11T09:52:37.023Z,36.62
2022-08-11T09:55:11.401Z,36.59
2022-08-11T09:57:59.658Z,36.85
2022-08-11T10:00:32.717Z,36.97
2022-08-11T10:03:07.284Z,36.75
2022-08-11T10:05:54.487Z,37.05
2022-08-11T10:08:26.566Z,37.08
2022-08-11T10:10:56.482Z,37.30
2022-08-11T10:14:30.277Z,37.48
2022-08-11T10:16:28.229Z,37.55
2022-08-11T10:18:59.631Z,37.34
2022-08-11T10:21:39.450Z,37.35
2022-08-11T10:24:26.430Z,37.29
2022-08-11T10:26:58.487Z,37.38
2022-08-11T10:29:52.518Z,37.53
2022-08-11T10:32:57.381Z,36.83
2022-08-11T10:35:29.762Z,36.78
2022-08-11T10:38:06.435Z,36.77
2022-08-11T10:40:47.405Z,37.04
2022-08-11T10:43:53.339Z,37.03
2022-08-11T17:00:55.160Z,30.22
2022-08-11T17:03:41.891Z,29.97
2022-08-11T17:06:31.108Z,29.25
2022-08-11T17:09:21.143Z,28.35
2022-08-11T17:12:14.902Z,28.10
2022-08-11T17:14:49.517Z,27.88
2022-08-11T17:17:27.072Z,27.92
2022-08-11T17:20:43.226Z,27.90
2022-08-11T17:23:12.925Z,27.89
2022-08-11T17:25:59.677Z,27.98
2022-08-11T17:28:30.892Z,28.05
2022-08-11T17:31:21.865Z,27.99
2022-08-11T17:34:15.808Z,27.68
2022-08-11T17:36:45.682Z,27.66
2022-08-11T17:39:15.364Z,27.64
2022-08-11T17:42:03.000Z,27.61
2022-08-11T17:44:51.631Z,27.64
2022-08-11T17:47:39.062Z,27.63
2022-08-11T17:50:17.284Z,27.62
2022-08-11T17:53:06.218Z,27.82
2022-08-11T17:55:55.053Z,27.94
2022-08-11T17:58:43.567Z,27.99
2022-08-11T18:01:12.661Z,28.04
2022-08-11T18:03:57.587Z,28.12
2022-08-11T18:06:34.687Z,28.14
2022-08-11T18:09:26.747Z,28.17
2022-08-11T18:12:14.544Z,28.21
2022-08-11T18:15:05.157Z,28.32
2022-08-11T18:17:53.207Z,28.33
2022-08-11T18:20:39.899Z,28.32
2022-08-11T18:23:46.258Z,28.18
2022-08-11T18:26:39.646Z,28.26
2022-08-11T18:29:27.893Z,28.20
2022-08-11T18:32:22.027Z,28.26
2022-08-11T18:35:12.588Z,28.06
2022-08-11T18:38:06.011Z,27.85
2022-08-11T18:40:54.511Z,27.73
2022-08-11T18:43:44.483Z,27.42
2022-08-11T18:46:35.079Z,27.01
2022-08-11T18:50:01.002Z,26.85
2022-08-11T18:52:39.079Z,26.47
2022-08-11T18:55:32.459Z,26.30
2022-08-11T18:58:23.046Z,26.15
2022-08-11T19:01:15.282Z,26.51
2022-08-11T19:04:11.062Z,26.36
2022-08-11T19:07:02.074Z,26.47
2022-08-11T19:09:50.074Z,26.51
2022-08-11T19:12:38.907Z,26.57
2022-08-11T19:15:27.891Z,26.58
2022-08-11T19:18:16.608Z,26.59
2022-08-11T19:21:04.128Z,26.63
2022-08-11T19:23:55.337Z,26.96
2022-08-11T19:26:42.625Z,26.92
2022-08-11T19:30:07.194Z,26.76
2022-08-11T19:32:38.603Z,26.63
2022-08-11T19:35:26.411Z,26.55
2022-08-11T19:38:13.330Z,26.39
2022-08-11T19:41:00.918Z,26.74
2022-08-11T19:43:49.597Z,26.77
2022-08-11T19:46:41.449Z,26.89
2022-08-11T19:49:29.216Z,26.86
2022-08-11T19:52:17.419Z,26.60
2022-08-11T19:55:04.412Z,26.74
2022-08-11T19:57:53.431Z,26.54
2022-08-11T20:00:40.692Z,26.62
2022-08-11T20:03:32.127Z,26.75
2022-08-11T20:06:24.399Z,26.57
2022-08-11T20:09:16.992Z,26.59
2022-08-11T20:12:07.250Z,26.63
2022-08-11T20:14:58.386Z,26.41
2022-08-11T20:17:51.034Z,26.29
2022-08-11T20:20:40.591Z,26.40
2022-08-11T20:23:28.614Z,26.31
2022-08-11T20:26:30.650Z,26.33
2022-08-11T20:29:19.451Z,26.25
2022-08-11T20:32:09.338Z,26.32
2022-08-11T20:34:59.336Z,26.30
2022-08-11T20:37:51.265Z,26.25
2022-08-11T20:40:41.335Z,26.43
2022-08-11T20:44:05.607Z,26.47
2022-08-11T20:46:38.823Z,26.51
2022-08-11T20:49:40.864Z,26.61
2022-08-11T20:52:37.244Z,26.58
2022-08-11T20:55:26.087Z,26.62
2022-08-11T20:59:02.433Z,26.62
2022-08-11T21:01:41.254Z,26.67
2022-08-11T21:04:28.607Z,26.62
2022-08-11T21:07:27.086Z,26.55
2022-08-11T21:10:23.417Z,26.63
2022-08-11T21:13:26.384Z,26.56
2022-08-11T21:16:25.464Z,26.50
2022-08-11T21:20:01.511Z,26.44
2022-08-11T21:22:28.145Z,26.45
2022-08-11T21:25:17.556Z,26.44
2022-08-11T21:28:05.402Z,26.38
2022-08-11T21:30:57.478Z,26.44
2022-08-11T21:33:46.913Z,26.51
2022-08-11T21:36:34.013Z,26.53
2022-08-11T21:39:25.181Z,26.46
2022-08-11T21:42:13.579Z,26.51
2022-08-11T21:45:03.623Z,26.46
2022-08-11T21:48:00.839Z,26.47
2022-08-11T21:50:48.687Z,26.41
2022-08-11T21:53:35.717Z,26.42
2022-08-11T21:56:25.549Z,26.51
2022-08-11T21:59:15.880Z,26.52
2022-08-11T22:02:03.589Z,26.51
2022-08-11T22:04:55.239Z,26.50
2022-08-11T22:07:42.511Z,26.53
2022-08-11T22:10:40.636Z,26.49
2022-08-11T22:13:31.432Z,26.59
2022-08-11T22:16:18.674Z,26.57
2022-08-11T22:19:07.833Z,26.55
2022-08-11T22:22:04.001Z,26.60
2022-08-11T22:24:52.733Z,26.63
2022-08-11T22:27:40.037Z,26.65
2022-08-11T22:30:28.401Z,26.61
2022-08-11T22:33:16.729Z,26.58
2022-08-11T22:36:04.247Z,26.69
2022-08-11T22:38:51.885Z,26.65
2022-08-11T22:41:40.231Z,26.74
2022-08-11T22:44:27.553Z,26.69
2022-08-11T22:47:18.470Z,26.67
2022-08-11T22:50:10.241Z,26.71
2022-08-11T22:52:56.969Z,26.57
2022-08-11T22:55:44.626Z,26.63
2022-08-11T22:58:33.054Z,26.67
2022-08-11T23:01:19.534Z,26.50
2022-08-11T23:04:06.505Z,26.59
2022-08-11T23:06:54.170Z,26.52
2022-08-11T23:09:42.937Z,26.60
2022-08-11T23:12:30.109Z,26.62
